Flight Track Log - Related Links

Times and Time Zones

All times are in EDT time to prevent confusion due to time zone crossing. See the SKW3460 flight status page for this flight to view local times or setup timezone preferences in your user account.

Time Position Orientation Groundspeed Altitude Reporting Facility
EDT Latitude Longitude Course Direction KTS MPH feet Rate Location/Type
Mon 09:45:49 AM 45.5942 -122.5978 295° West 146 168 500  Level Seattle Center
Mon 09:46:08 AM 45.5994 -122.6142 295° West 146 168 1,200 1,393 Climbing Seattle Center
Mon 09:46:45 AM 45.6108 -122.6458 297° West 180 207 1,800 1,800 Climbing Seattle Center
Mon 09:47:08 AM 45.6231 -122.6878 293° West 225 259 3,000 2,500 Climbing Seattle Center
Mon 09:47:45 AM 45.6367 -122.7228 299° West 207 238 4,300 3,344 Climbing Seattle Center
Mon 09:48:09 AM 45.6542 -122.7678 299° West 240 276 6,400 3,344 Climbing Seattle Center
Mon 09:48:46 AM 45.6550 -122.8064 272° West 231 266 7,700 2,082 Climbing Seattle Center
Mon 09:49:47 AM 45.5897 -122.7911 171° South 259 298 9,800 1,983 Climbing Seattle Center
Mon 09:50:47 AM 45.5233 -122.7239 145° Southeast 287 330 11,700 1,934 Climbing Seattle Center
Mon 09:51:48 AM 45.4564 -122.6383 138° Southeast 316 364 13,700 2,182 Climbing Seattle Center
Mon 09:52:48 AM 45.3681 -122.5278 139° Southeast 346 398 16,100 2,033 Climbing Seattle Center
Mon 09:53:49 AM 45.2869 -122.4292 139° Southeast 375 432 17,800 1,328 Climbing Seattle Center
Mon 09:54:50 AM 45.2033 -122.3233 138° Southeast 397 457 18,800 1,289 Climbing Seattle Center
Mon 09:55:50 AM 45.1158 -122.2167 139° Southeast 410 472 20,400 1,537 Climbing Seattle Center
Mon 09:56:51 AM 45.0178 -122.1208 145° Southeast 431 496 21,900 1,328 Climbing Seattle Center
Mon 09:57:52 AM 44.9039 -122.0469 155° Southeast 445 512 23,100 1,240 Climbing Seattle Center
Mon 09:58:52 AM 44.7989 -121.9733 154° Southeast 433 498 24,400 1,190 Climbing Seattle Center
Mon 09:59:53 AM 44.6828 -121.8983 155° Southeast 437 503 25,500 984 Climbing Seattle Center
Mon 10:00:54 AM 44.5672 -121.8231 155° Southeast 451 519 26,400 992 Climbing Seattle Center
Mon 10:01:54 AM 44.4511 -121.7467 155° Southeast 460 529 27,500 942 Climbing Seattle Center
Mon 10:02:55 AM 44.3336 -121.6683 155° Southeast 466 536 28,300 639 Climbing Seattle Center
Mon 10:03:56 AM 44.2139 -121.5914 155° Southeast 475 547 28,800 496 Climbing Seattle Center
Mon 10:04:56 AM 44.0925 -121.5133 155° Southeast 481 554 29,300 496 Climbing Seattle Center
Mon 10:05:57 AM 43.9686 -121.4325 155° Southeast 489 563 29,800 492 Climbing Seattle Center
Mon 10:06:58 AM 43.8431 -121.3514 155° Southeast 497 572 30,300 496 Climbing Seattle Center
Mon 10:07:58 AM 43.7103 -121.2675 155° Southeast 499 574 30,800 496 Climbing Seattle Center
Mon 10:08:59 AM 43.5833 -121.1875 155° Southeast 501 577 31,300 492 Climbing Seattle Center
Mon 10:10:00 AM 43.4583 -121.1078 155° Southeast 497 572 31,800 496 Climbing Seattle Center
Mon 10:11:00 AM 43.3322 -121.0283 155° Southeast 498 573 32,300 545 Climbing Seattle Center
Mon 10:12:01 AM 43.2067 -120.9503 156° South 496 571 32,900 344 Climbing Seattle Center
Mon 10:13:02 AM 43.0747 -120.9064 166° South 498 573 33,000 50 Climbing Seattle Center
Mon 10:14:02 AM 42.9389 -120.8725 170° South 493 567 33,000  Level Seattle Center
Mon 10:15:03 AM 42.8031 -120.8408 170° South 495 570 33,000  Level Seattle Center
Mon 10:16:04 AM 42.6669 -120.8083 170° South 497 572 33,000  Level Seattle Center
Mon 10:17:04 AM 42.5289 -120.7744 170° South 501 577 33,000  Level Seattle Center
Mon 10:18:05 AM 42.3911 -120.7414 170° South 501 577 33,000  Level Seattle Center
Mon 10:19:06 AM 42.2533 -120.7089 170° South 502 578 33,000  Level Seattle Center
Mon 10:20:07 AM 42.1150 -120.6744 170° South 502 578 33,000  Level Seattle Center
Mon 10:21:07 AM 41.9781 -120.6428 170° South 499 574 33,000  Level Seattle Center
Mon 10:22:08 AM 41.8400 -120.6117 170° South 500 575 33,000  Level Seattle Center
Mon 10:23:09 AM 41.7033 -120.5789 170° South 498 573 33,000  Level Seattle Center
Mon 10:24:10 AM 41.5678 -120.5458 170° South 494 568 33,000  Level Seattle Center
Mon 10:25:10 AM 41.4047 -120.5069 170° South 495 570 33,000  Level Seattle Center
Mon 10:26:11 AM 41.2683 -120.4758 170° South 494 568 33,000  Level Seattle Center
Mon 10:27:12 AM 41.1319 -120.4439 170° South 497 572 33,000  Level Seattle Center
Mon 10:28:13 AM 40.9975 -120.4064 168° South 495 570 33,000  Level Seattle Center
Mon 10:29:13 AM 40.8619 -120.3617 166° South 499 574 33,000  Level Seattle Center
Mon 10:30:14 AM 40.7272 -120.3181 166° South 497 572 33,000  Level Seattle Center
Mon 10:31:15 AM 40.5942 -120.2753 166° South 494 568 33,000  Level Seattle Center
Mon 10:31:50 AM 40.5222 -120.2522 166° South 497 572 33,000  Level Oakland Center
Mon 10:32:51 AM 40.3886 -120.2094 166° South 496 571 33,000  Level Oakland Center
Mon 10:33:17 AM 40.3347 -120.1928 167° South 494 568 33,000  Level Seattle Center
Mon 10:33:52 AM 40.2556 -120.1683 167° South 492 566 33,000  Level Oakland Center
Mon 10:34:53 AM 40.1225 -120.1250 166° South 492 566 33,000  Level Oakland Center
Mon 10:35:54 AM 39.9628 -120.0750 167° South 495 570 33,000  Level Oakland Center
Mon 10:36:56 AM 39.8317 -120.0322 166° South 491 565 33,000  Level Oakland Center
Mon 10:37:57 AM 39.7008 -119.9917 167° South 486 559 33,000  Level Oakland Center
Mon 10:38:58 AM 39.5706 -119.9503 166° South 484 557 33,000  Level Oakland Center
Mon 10:39:59 AM 39.4372 -119.9100 167° South 491 565 33,000  Level Oakland Center
Mon 10:41:00 AM 39.3061 -119.8692 166° South 490 564 33,000  Level Oakland Center
Mon 10:42:02 AM 39.1756 -119.8283 166° South 487 560 33,000  Level Oakland Center
Mon 10:43:03 AM 39.0458 -119.7886 167° South 481 554 33,000  Level Oakland Center
Mon 10:44:04 AM 38.9139 -119.7483 167° South 488 562 33,000  Level Oakland Center
Mon 10:45:05 AM 38.7603 -119.7006 166° South 478 550 33,000  Level Oakland Center
Mon 10:46:06 AM 38.6314 -119.6606 166° South 478 550 33,000  Level Oakland Center
Mon 10:47:08 AM 38.5022 -119.6231 167° South 477 549 33,000  Level Oakland Center
Mon 10:48:09 AM 38.3858 -119.5872 166° South 475 547 33,000  Level Oakland Center
Mon 10:49:10 AM 38.2528 -119.5464 166° South 473 544 33,000  Level Oakland Center
Mon 10:50:11 AM 38.1297 -119.5103 167° South 472 543 33,000  Level Oakland Center
Mon 10:51:12 AM 38.0031 -119.4711 166° South 466 536 33,000  Level Oakland Center
Mon 10:52:13 AM 37.8469 -119.4264 167° South 472 543 33,000  Level Oakland Center
Mon 10:53:15 AM 37.7192 -119.3900 167° South 469 540 33,000 -48 Level Oakland Center
Mon 10:54:17 AM 37.5956 -119.3558 168° South 468 539 32,900  Descending Oakland Center
Mon 10:55:17 AM 37.4683 -119.3189 167° South 467 537 33,000 50 Climbing Oakland Center
Mon 10:56:18 AM 37.3417 -119.2808 167° South 466 536 33,000  Level Oakland Center
Mon 10:57:19 AM 37.2147 -119.2436 167° South 464 534 33,000  Level Oakland Center
Mon 10:58:20 AM 37.0886 -119.2058 167° South 466 536 33,000  Level Oakland Center
Mon 10:59:22 AM 36.9628 -119.1675 166° South 463 533 33,000  Level Oakland Center
Mon 11:00:23 AM 36.8361 -119.1314 167° South 464 534 33,000  Level Oakland Center
Mon 11:01:24 AM 36.7100 -119.0947 167° South 465 535 33,000  Level Oakland Center
Mon 11:02:25 AM 36.5589 -119.0503 167° South 465 535 33,000  Level Oakland Center
Mon 11:03:26 AM 36.4322 -119.0136 167° South 466 536 33,000  Level Oakland Center
Mon 11:04:27 AM 36.3064 -118.9778 167° South 464 534 33,000  Level Oakland Center
Mon 11:05:29 AM 36.1794 -118.9433 168° South 465 535 33,000  Level Oakland Center
Mon 11:06:30 AM 36.0544 -118.9072 167° South 461 531 33,000  Level Oakland Center
Mon 11:07:31 AM 35.9283 -118.8733 168° South 463 533 33,000 -49 Level Oakland Center
Mon 11:08:32 AM 35.8039 -118.8381 167° South 460 529 32,900  Descending Oakland Center
Mon 11:09:33 AM 35.6778 -118.8019 167° South 463 533 33,000 57 Climbing Oakland Center
Mon 11:10:17 AM 35.5783 -118.7728 167° South 457 526 33,000 -226 Level Los Angeles Center
Mon 11:11:19 AM 35.4522 -118.7392 168° South 460 529 32,600 -726 Descending Los Angeles Center
Mon 11:12:21 AM 35.3272 -118.7033 167° South 461 531 31,500 -1,016 Descending Los Angeles Center
Mon 11:13:23 AM 35.2033 -118.6683 167° South 459 528 30,500 -968 Descending Los Angeles Center
Mon 11:14:25 AM 35.0772 -118.6356 168° South 459 528 29,500 -968 Descending Los Angeles Center
Mon 11:15:27 AM 34.9664 -118.5608 151° Southeast 475 547 28,500 -1,016 Descending Los Angeles Center
Mon 11:16:29 AM 34.8728 -118.4144 128° Southeast 470 541 27,400 -1,258 Descending Los Angeles Center
Mon 11:17:31 AM 34.7925 -118.2967 130° Southeast 460 529 25,900 -2,226 Descending Los Angeles Center
Mon 11:18:33 AM 34.7128 -118.1839 131° Southeast 448 516 22,800 -2,758 Descending Los Angeles Center
Mon 11:19:35 AM 34.6372 -118.0728 130° Southeast 431 496 20,200 -1,887 Descending Los Angeles Center
Mon 11:20:37 AM 34.5803 -117.9550 120° Southeast 411 473 18,900 -1,839 Descending Los Angeles Center
Mon 11:21:39 AM 34.5144 -117.8114 119° Southeast 408 470 16,400 -2,177 Descending Los Angeles Center
Mon 11:22:41 AM 34.4619 -117.6958 119° Southeast 396 456 14,400 -1,258 Descending Los Angeles Center
Mon 11:23:43 AM 34.4114 -117.5886 120° Southeast 372 428 13,800 -677 Descending Los Angeles Center
Mon 11:24:45 AM 34.3658 -117.4858 118° Southeast 307 353 13,000 -1,065 Descending Los Angeles Center
Mon 11:25:47 AM 34.3306 -117.4103 119° Southeast 266 306 11,600 -1,403 Descending Los Angeles Center
Mon 11:26:49 AM 34.2872 -117.3394 127° Southeast 278 320 10,100 -1,500 Descending Los Angeles Center
Mon 11:27:51 AM 34.2231 -117.3194 166° South 245 282 8,500 -1,065 Descending Los Angeles Center
Mon 11:28:53 AM 34.1553 -117.2981 165° South 245 282 7,900 -1,182 Descending Los Angeles Center
Mon 11:30:03 AM 34.0667 -117.2667 164° South 225 259 5,900 -1,588 Descending Southern California TRACON
Mon 11:31:09 AM 34.0333 -117.3000 220° Southwest 211 243 4,300 -800 Descending Southern California TRACON
Mon 11:32:03 AM 34.0500 -117.3500 292° West 188 216 4,300 -347 Level Southern California TRACON
Mon 11:33:10 AM 34.0500 -117.4167 270° West 185 213 3,600 -744 Descending Southern California TRACON
Mon 11:34:04 AM 34.0500 -117.4667 270° West 170 196 2,800 -842 Descending Southern California TRACON
Mon 11:35:04 AM 34.0500 -117.5167 270° West 147 169 2,000 -744 Descending Southern California TRACON
Mon 11:36:05 AM 34.0500 -117.5667 270° West 133 153 1,300 -689 Descending Southern California TRACON

Login

Don't have an account? Register now (free) for customized features, flight alerts, and more!